createdAt,value
2019-03-03T00:00:41.575Z,99465.50
2019-03-03T00:03:10.318Z,99461.28
2019-03-03T00:05:39.085Z,99458.36
2019-03-03T00:08:07.822Z,99457.47
2019-03-03T00:10:36.603Z,99452.72
2019-03-03T00:13:05.763Z,99451.38
2019-03-03T00:15:34.573Z,99452.16
2019-03-03T00:18:03.643Z,99449.48
2019-03-03T00:20:32.659Z,99449.48
2019-03-03T00:23:01.400Z,99450.38
2019-03-03T00:25:30.166Z,99453.95
2019-03-03T00:27:58.900Z,99453.66
2019-03-03T00:30:27.783Z,99457.09
2019-03-03T00:32:56.593Z,99446.19
2019-03-03T00:35:25.364Z,99447.84
2019-03-03T00:38:14.135Z,99434.77
2019-03-03T00:41:00.640Z,99428.58
2019-03-03T00:43:30.930Z,99418.50
2019-03-03T00:46:13.378Z,99418.50
2019-03-03T00:48:43.704Z,99411.92
2019-03-03T00:51:29.260Z,99408.82
2019-03-03T00:53:59.573Z,99408.38
2019-03-03T00:56:29.945Z,99405.84
2019-03-03T00:59:00.249Z,99402.81
2019-03-03T01:01:30.558Z,99410.91
2019-03-03T01:04:12.964Z,99401.80
2019-03-03T01:06:46.030Z,99403.59
2019-03-03T01:09:40.941Z,99404.45
2019-03-03T01:12:14.338Z,99397.80
2019-03-03T01:14:53.387Z,99394.97
2019-03-03T01:17:26.469Z,99390.00
2019-03-03T01:20:08.925Z,99388.73
2019-03-03T01:22:39.248Z,99375.70
2019-03-03T01:25:08.499Z,99374.06
2019-03-03T01:27:37.364Z,99360.52
2019-03-03T01:30:11.663Z,99354.55
2019-03-03T01:32:40.408Z,99345.52
2019-03-03T01:35:11.169Z,99345.84
2019-03-03T01:37:39.949Z,99363.98
2019-03-03T01:40:11.059Z,99364.39
2019-03-03T01:42:39.801Z,99358.72
2019-03-03T01:45:15.743Z,99359.20
2019-03-03T01:47:44.489Z,99347.89
2019-03-03T01:50:14.243Z,99347.45
2019-03-03T01:52:43.462Z,99336.63
2019-03-03T01:55:13.237Z,99344.02
2019-03-03T01:57:41.964Z,99339.20
2019-03-03T02:00:22.240Z,99336.99
2019-03-03T02:02:50.978Z,99340.70
2019-03-03T02:05:19.718Z,99332.78
2019-03-03T02:07:48.494Z,99344.18
2019-03-03T02:10:19.475Z,99342.54
2019-03-03T02:12:48.238Z,99344.66
2019-03-03T02:15:16.984Z,99334.54
2019-03-03T02:17:46.039Z,99336.63
2019-03-03T02:20:14.793Z,99336.95
2019-03-03T02:22:43.864Z,99343.48
2019-03-03T02:25:14.386Z,99340.38
2019-03-03T02:27:43.444Z,99341.81
2019-03-03T02:30:17.545Z,99343.28
2019-03-03T02:32:46.380Z,99335.19
2019-03-03T02:35:15.661Z,99326.17
2019-03-03T02:37:44.404Z,99327.97
2019-03-03T02:40:16.010Z,99330.95
2019-03-03T02:42:44.798Z,99334.62
2019-03-03T02:45:16.036Z,99333.43
2019-03-03T02:47:44.772Z,99326.28
2019-03-03T02:50:16.960Z,99332.00
2019-03-03T02:52:45.899Z,99320.69
2019-03-03T02:55:16.903Z,99317.66
2019-03-03T02:57:45.634Z,99317.63
2019-03-03T03:00:26.749Z,99318.34
2019-03-03T03:03:00.098Z,99313.56
2019-03-03T03:05:36.421Z,99317.05
2019-03-03T03:08:06.737Z,99312.58
2019-03-03T03:10:40.821Z,99312.48
2019-03-03T03:13:17.093Z,99310.32
2019-03-03T03:15:53.458Z,99309.42
2019-03-03T03:18:26.761Z,99303.83
2019-03-03T03:20:59.873Z,99301.22
2019-03-03T03:23:30.187Z,99304.33
2019-03-03T03:26:03.491Z,99304.28
2019-03-03T03:28:36.766Z,99303.91
2019-03-03T03:31:07.086Z,99304.33
2019-03-03T03:33:37.643Z,99304.77
2019-03-03T03:36:10.837Z,99298.96
2019-03-03T03:38:57.654Z,99300.08
2019-03-03T03:41:43.214Z,99306.02
2019-03-03T03:44:19.485Z,99293.70
2019-03-03T03:46:49.813Z,99287.96
2019-03-03T03:49:26.138Z,99284.95
2019-03-03T03:52:02.506Z,99285.80
2019-03-03T03:54:47.845Z,99284.91
2019-03-03T03:57:34.002Z,99287.66
2019-03-03T04:00:07.391Z,99287.27
2019-03-03T04:02:43.757Z,99276.85
2019-03-03T04:05:29.005Z,99278.56
2019-03-03T04:08:10.092Z,99271.11
2019-03-03T04:10:40.419Z,99273.42
2019-03-03T04:13:10.814Z,99271.70
2019-03-03T04:15:46.558Z,99268.60
2019-03-03T04:18:31.899Z,99263.36
2019-03-03T04:21:08.175Z,99264.17
2019-03-03T04:23:48.187Z,99264.63
2019-03-03T04:26:27.939Z,99253.75
2019-03-03T04:28:58.278Z,99251.04
2019-03-03T04:31:28.590Z,99252.70
2019-03-03T04:33:58.914Z,99247.92
2019-03-03T04:36:29.224Z,99256.58
2019-03-03T04:39:15.008Z,99255.63
2019-03-03T04:41:45.328Z,99257.02
2019-03-03T04:44:32.121Z,99253.60
2019-03-03T04:47:08.805Z,99248.33
2019-03-03T04:49:39.119Z,99242.98
2019-03-03T04:52:12.458Z,99239.11
2019-03-03T04:54:51.784Z,99240.73
2019-03-03T04:57:37.645Z,99239.81
2019-03-03T05:00:27.198Z,99230.20
2019-03-03T05:03:13.959Z,99230.66
2019-03-03T05:06:00.582Z,99224.92
2019-03-03T05:08:30.919Z,99228.45
2019-03-03T05:11:01.234Z,99224.11
2019-03-03T05:13:31.595Z,99217.36
2019-03-03T05:16:13.808Z,99220.88
2019-03-03T05:18:44.165Z,99213.44
2019-03-03T05:21:12.924Z,99210.25
2019-03-03T05:23:41.660Z,99213.60
2019-03-03T05:26:10.718Z,99212.53
2019-03-03T05:28:39.459Z,99210.20
2019-03-03T05:31:08.565Z,99210.08
2019-03-03T05:33:37.299Z,99211.05
2019-03-03T05:36:06.059Z,99213.84
2019-03-03T05:38:34.810Z,99221.70
2019-03-03T05:41:03.599Z,99215.16
2019-03-03T05:43:32.334Z,99216.58
2019-03-03T05:46:01.077Z,99215.16
2019-03-03T05:48:30.073Z,99212.55
2019-03-03T05:50:58.815Z,99214.76
2019-03-03T05:53:29.243Z,99211.69
2019-03-03T05:55:57.985Z,99216.63
2019-03-03T05:58:28.500Z,99216.06
2019-03-03T06:00:57.239Z,99211.29
2019-03-03T06:03:26.003Z,99207.69
2019-03-03T06:05:54.745Z,99207.23
2019-03-03T06:08:23.503Z,99214.17
2019-03-03T06:10:52.243Z,99213.66
2019-03-03T06:13:21.604Z,99209.33
2019-03-03T06:15:50.353Z,99208.95
2019-03-03T06:18:19.143Z,99211.03
2019-03-03T06:20:47.858Z,99207.10
2019-03-03T06:23:16.658Z,99205.70
2019-03-03T06:25:45.403Z,99205.05
2019-03-03T06:28:14.144Z,99206.28
2019-03-03T06:30:43.257Z,99207.54
2019-03-03T06:33:11.973Z,99210.09
2019-03-03T06:35:40.760Z,99204.02
2019-03-03T06:38:09.499Z,99202.63
2019-03-03T06:40:38.263Z,99211.67
2019-03-03T06:43:06.994Z,99214.30
2019-03-03T06:45:35.764Z,99208.66
2019-03-03T06:48:04.847Z,99205.45
2019-03-03T06:50:33.619Z,99210.92
2019-03-03T06:53:02.360Z,99200.95
2019-03-03T06:55:31.136Z,99198.33
2019-03-03T06:57:59.879Z,99204.28
2019-03-03T07:00:28.609Z,99203.25
2019-03-03T07:02:58.653Z,99200.95
2019-03-03T07:05:27.403Z,99194.67
2019-03-03T07:08:00.544Z,99199.31
2019-03-03T07:10:29.312Z,99203.17
2019-03-03T07:12:58.187Z,99203.65
2019-03-03T07:15:26.923Z,99202.72
2019-03-03T07:17:55.694Z,99209.67
2019-03-03T07:20:24.436Z,99204.81
2019-03-03T07:22:53.493Z,99196.62
2019-03-03T07:25:22.248Z,99204.81
2019-03-03T07:27:52.360Z,99194.25
2019-03-03T07:30:21.118Z,99203.95
2019-03-03T07:32:54.790Z,99201.53
2019-03-03T07:35:23.871Z,99195.05
2019-03-03T07:37:55.496Z,99206.77
2019-03-03T07:40:24.233Z,99206.72
2019-03-03T07:42:53.003Z,99202.33
2019-03-03T07:45:21.742Z,99201.47
2019-03-03T07:47:50.500Z,99204.80
2019-03-03T07:50:19.263Z,99207.75
2019-03-03T07:52:48.349Z,99204.64
2019-03-03T07:55:17.435Z,99203.47
2019-03-03T07:57:46.925Z,99197.20
2019-03-03T08:00:17.439Z,99202.20
2019-03-03T08:02:46.179Z,99190.01
2019-03-03T08:05:14.963Z,99188.33
2019-03-03T08:07:43.704Z,99197.45
2019-03-03T08:10:13.872Z,99191.16
2019-03-03T08:12:42.628Z,99186.19
2019-03-03T08:15:14.686Z,99172.34
2019-03-03T08:17:43.446Z,99181.25
2019-03-03T08:20:14.024Z,99166.28
2019-03-03T08:22:42.770Z,99169.94
2019-03-03T08:25:12.799Z,99161.20
2019-03-03T08:27:42.115Z,99157.32
2019-03-03T08:30:13.069Z,99158.08
2019-03-03T08:32:41.864Z,99162.37
2019-03-03T08:35:24.856Z,99155.67
2019-03-03T08:37:53.619Z,99155.94
2019-03-03T08:40:22.364Z,99163.55
2019-03-03T08:42:55.453Z,99168.25
2019-03-03T08:45:31.833Z,99162.53
2019-03-03T08:48:02.174Z,99164.30
2019-03-03T08:50:47.935Z,99163.27
2019-03-03T08:53:30.830Z,99162.66
2019-03-03T08:56:01.153Z,99169.02
2019-03-03T08:58:34.243Z,99166.03
2019-03-03T09:01:07.269Z,99158.56
2019-03-03T09:03:40.610Z,99162.48
2019-03-03T09:06:23.178Z,99167.52
2019-03-03T09:08:59.570Z,99164.40
2019-03-03T09:11:38.943Z,99168.30
2019-03-03T09:14:12.052Z,99168.83
2019-03-03T09:16:51.435Z,99157.67
2019-03-03T09:19:21.794Z,99150.73
2019-03-03T09:22:04.739Z,99155.70
2019-03-03T09:24:47.266Z,99138.52
2019-03-03T09:27:34.085Z,99134.82
2019-03-03T09:30:21.089Z,99140.71
2019-03-03T09:33:07.666Z,99131.41
2019-03-03T09:35:44.376Z,99135.66
2019-03-03T09:38:14.629Z,99131.22
2019-03-03T09:40:44.978Z,99135.31
2019-03-03T09:43:21.280Z,99140.37
2019-03-03T09:46:06.758Z,99133.97
2019-03-03T09:48:54.077Z,99137.73
2019-03-03T09:51:41.091Z,99130.28
2019-03-03T09:54:20.442Z,99148.52
2019-03-03T09:56:50.786Z,99132.80
2019-03-03T09:59:21.280Z,99124.50
2019-03-03T10:02:03.951Z,99115.88
2019-03-03T10:04:34.624Z,99133.41
2019-03-03T10:07:17.973Z,99130.95
2019-03-03T10:10:03.646Z,99118.41
2019-03-03T10:12:40.264Z,99130.05
2019-03-03T10:15:29.563Z,99117.50
2019-03-03T10:18:16.287Z,99103.70
2019-03-03T10:20:46.611Z,99122.26
2019-03-03T10:23:16.963Z,99132.34
2019-03-03T10:25:56.759Z,99125.02
2019-03-03T10:28:27.109Z,99123.41
2019-03-03T10:31:08.525Z,99124.95
2019-03-03T10:33:44.916Z,99116.40
2019-03-03T10:36:33.981Z,99126.13
2019-03-03T10:39:13.396Z,99111.05
2019-03-03T10:41:44.979Z,99125.91
2019-03-03T10:44:15.340Z,99127.23
2019-03-03T10:47:03.903Z,99114.31
2019-03-03T10:49:37.158Z,99091.82
2019-03-03T10:52:07.663Z,99074.94
2019-03-03T10:54:40.768Z,99072.52
2019-03-03T10:57:20.297Z,99072.14
2019-03-03T11:00:05.690Z,99061.42
2019-03-03T11:02:47.918Z,99066.58
2019-03-03T11:05:21.253Z,99063.81
2019-03-03T11:08:06.960Z,99072.05
2019-03-03T11:10:43.824Z,99065.89
2019-03-03T11:13:20.130Z,99045.59
2019-03-03T11:16:02.790Z,99048.98
2019-03-03T11:18:41.970Z,99031.03
2019-03-03T11:21:12.324Z,99033.44
2019-03-03T11:23:48.480Z,99030.15
2019-03-03T11:26:21.941Z,99013.05
2019-03-03T11:28:58.504Z,99020.80
2019-03-03T11:31:47.569Z,99033.98
2019-03-03T11:34:24.288Z,99022.42
2019-03-03T11:36:57.340Z,99025.97
2019-03-03T11:39:39.757Z,99020.73
2019-03-03T11:42:16.052Z,99018.73
2019-03-03T11:45:01.519Z,99007.47
2019-03-03T11:47:47.249Z,99018.74
2019-03-03T11:50:20.454Z,99023.28
2019-03-03T11:52:59.838Z,99026.77
2019-03-03T11:55:30.159Z,99038.25
2019-03-03T11:58:13.099Z,99052.97
2019-03-03T12:00:58.545Z,99037.96
2019-03-03T12:03:44.024Z,99026.52
2019-03-03T12:06:17.455Z,99023.88
2019-03-03T12:08:56.954Z,99021.59
2019-03-03T12:11:27.272Z,99016.75
2019-03-03T12:14:00.996Z,99013.28
2019-03-03T12:16:46.543Z,99008.18
2019-03-03T12:19:33.150Z,99012.51
2019-03-03T12:22:03.475Z,98994.66
2019-03-03T12:24:42.692Z,98997.98
2019-03-03T12:27:16.452Z,99000.54
2019-03-03T12:29:46.775Z,98988.30
2019-03-03T12:32:17.190Z,99011.05
2019-03-03T12:34:56.678Z,99030.80
2019-03-03T12:37:36.000Z,99004.43
2019-03-03T12:40:11.711Z,99024.34
2019-03-03T12:43:00.220Z,99007.64
2019-03-03T12:45:31.060Z,99009.26
2019-03-03T12:48:01.411Z,99008.39
2019-03-03T12:50:40.923Z,99014.55
2019-03-03T12:53:27.418Z,98985.56
2019-03-03T12:56:09.749Z,98981.93
2019-03-03T12:58:48.920Z,98977.30
2019-03-03T13:01:23.740Z,98985.46
2019-03-03T13:04:06.569Z,98984.47
2019-03-03T13:06:37.020Z,98976.62
2019-03-03T13:09:10.979Z,98971.65
2019-03-03T13:11:47.777Z,98962.96
2019-03-03T13:14:24.358Z,98961.08
2019-03-03T13:16:56.056Z,98975.78
2019-03-03T13:19:26.680Z,98952.77
2019-03-03T13:22:05.758Z,98948.59
2019-03-03T13:24:36.078Z,98962.02
2019-03-03T13:27:13.057Z,98957.20
2019-03-03T13:30:02.160Z,98940.23
2019-03-03T13:32:32.519Z,98946.77
2019-03-03T13:35:05.480Z,98968.24
2019-03-03T13:37:39.393Z,98949.11
2019-03-03T13:40:13.863Z,98941.70
2019-03-03T13:42:44.219Z,98935.81
2019-03-03T13:45:13.958Z,98941.89
2019-03-03T13:47:42.860Z,98954.55
2019-03-03T13:50:14.918Z,98927.73
2019-03-03T13:52:44.702Z,98956.66
2019-03-03T13:55:15.060Z,98933.66
2019-03-03T13:57:43.941Z,98929.81
2019-03-03T14:00:22.000Z,98935.59
2019-03-03T14:02:53.253Z,98937.33
2019-03-03T14:05:23.541Z,98930.80
2019-03-03T14:07:52.740Z,98912.42
2019-03-03T14:10:21.778Z,98915.73
2019-03-03T14:12:51.058Z,98933.39
2019-03-03T14:15:20.599Z,98918.24
2019-03-03T14:17:49.517Z,98919.59
2019-03-03T14:20:23.185Z,98904.55
2019-03-03T14:22:53.682Z,98904.31
2019-03-03T14:25:23.158Z,98899.96
2019-03-03T14:27:52.038Z,98901.48
2019-03-03T14:30:23.491Z,98917.90
2019-03-03T14:32:52.297Z,98921.27
2019-03-03T14:35:22.597Z,98923.00
2019-03-03T14:37:57.740Z,98904.35
2019-03-03T14:40:26.659Z,98915.97
2019-03-03T14:42:55.697Z,98907.84
2019-03-03T14:45:28.159Z,98905.77
2019-03-03T14:47:57.797Z,98908.05
2019-03-03T14:50:26.577Z,98910.12
2019-03-03T14:52:57.426Z,98903.08
2019-03-03T14:55:26.618Z,98905.05
2019-03-03T14:57:55.378Z,98893.61
2019-03-03T15:00:30.458Z,98893.94
2019-03-03T15:03:03.827Z,98900.70
2019-03-03T15:05:33.920Z,98902.70
2019-03-03T15:08:03.966Z,98902.36
2019-03-03T15:10:32.762Z,98899.34
2019-03-03T15:13:04.158Z,98888.52
2019-03-03T15:15:38.060Z,98886.14
2019-03-03T15:18:06.454Z,98871.38
2019-03-03T15:20:35.717Z,98875.89
2019-03-03T15:23:04.778Z,98874.63
2019-03-03T15:25:34.837Z,98890.08
2019-03-03T15:28:03.818Z,98874.77
2019-03-03T15:30:32.678Z,98880.27
2019-03-03T15:33:01.458Z,98871.00
2019-03-03T15:35:32.019Z,98858.67
2019-03-03T15:38:00.997Z,98872.28
2019-03-03T15:40:30.660Z,98865.25
2019-03-03T15:42:59.540Z,98862.39
2019-03-03T15:45:29.886Z,98852.28
2019-03-03T15:47:58.741Z,98847.75
2019-03-03T15:50:27.857Z,98855.73
2019-03-03T15:52:56.858Z,98855.31
2019-03-03T15:55:27.802Z,98854.67
2019-03-03T15:57:56.589Z,98850.39
2019-03-03T16:00:36.760Z,98853.98
2019-03-03T16:03:06.457Z,98851.24
2019-03-03T16:05:35.319Z,98852.08
2019-03-03T16:08:05.458Z,98844.04
2019-03-03T16:10:34.238Z,98846.52
2019-03-03T16:13:05.139Z,98841.50
2019-03-03T16:15:34.059Z,98843.02
2019-03-03T16:18:04.959Z,98839.91
2019-03-03T16:20:34.023Z,98838.36
2019-03-03T16:23:02.798Z,98838.99
2019-03-03T16:25:31.698Z,98840.63
2019-03-03T16:28:00.560Z,98841.84
2019-03-03T16:30:29.438Z,98837.49
2019-03-03T16:32:58.798Z,98828.88
2019-03-03T16:35:30.279Z,98824.81
2019-03-03T16:37:59.397Z,98822.64
2019-03-03T16:40:28.481Z,98823.11
2019-03-03T16:42:57.237Z,98816.09
2019-03-03T16:45:26.183Z,98821.09
2019-03-03T16:47:55.077Z,98811.75
2019-03-03T16:50:24.917Z,98812.13
2019-03-03T16:52:53.797Z,98813.95
2019-03-03T16:55:25.038Z,98810.31
2019-03-03T16:57:56.779Z,98817.26
2019-03-03T17:00:29.538Z,98815.75
2019-03-03T17:02:58.437Z,98811.75
2019-03-03T17:05:29.562Z,98807.41
2019-03-03T17:07:58.389Z,98811.00
2019-03-03T17:10:27.301Z,98811.00
2019-03-03T17:12:56.073Z,98816.28
2019-03-03T17:15:26.550Z,98810.43
2019-03-03T17:17:55.375Z,98809.74
2019-03-03T17:20:24.218Z,98817.67
2019-03-03T17:22:52.977Z,98813.92
2019-03-03T17:25:27.418Z,98815.46
2019-03-03T17:27:56.271Z,98809.07
2019-03-03T17:30:26.538Z,98803.41
2019-03-03T17:32:55.384Z,98799.38
2019-03-03T17:35:24.357Z,98800.23
2019-03-03T17:37:53.618Z,98799.81
2019-03-03T17:40:24.839Z,98802.34
2019-03-03T17:42:53.879Z,98790.33
2019-03-03T17:45:23.959Z,98796.52
2019-03-03T17:47:53.140Z,98796.42
2019-03-03T17:50:26.708Z,98793.19
2019-03-03T17:52:56.088Z,98791.39
2019-03-03T17:55:24.877Z,98789.13
2019-03-03T17:57:54.638Z,98790.34
2019-03-03T18:00:29.181Z,98797.78
2019-03-03T18:02:58.658Z,98791.39
2019-03-03T18:05:27.678Z,98789.59
2019-03-03T18:07:56.859Z,98781.72
2019-03-03T18:10:25.997Z,98784.38
2019-03-03T18:12:54.799Z,98772.80
2019-03-03T18:15:23.671Z,98776.70
2019-03-03T18:17:52.638Z,98766.53
2019-03-03T18:20:22.678Z,98766.66
2019-03-03T18:22:51.478Z,98764.74
2019-03-03T18:25:23.578Z,98773.84
2019-03-03T18:27:52.600Z,98772.11
2019-03-03T18:30:26.198Z,98776.69
2019-03-03T18:32:55.421Z,98766.77
2019-03-03T18:35:24.801Z,98756.86
2019-03-03T18:37:54.318Z,98756.41
2019-03-03T18:40:27.181Z,98755.88
2019-03-03T18:42:56.398Z,98762.11
2019-03-03T18:45:25.798Z,98755.07
2019-03-03T18:47:56.238Z,98752.28
2019-03-03T18:50:26.657Z,98757.73
2019-03-03T18:52:56.642Z,98754.86
2019-03-03T18:55:26.822Z,98758.63
2019-03-03T18:57:55.680Z,98751.13
2019-03-03T19:00:32.321Z,98745.55
2019-03-03T19:03:02.162Z,98750.95
2019-03-03T19:05:34.398Z,98755.82
2019-03-03T19:08:03.498Z,98738.64
2019-03-03T19:10:37.910Z,98736.77
2019-03-03T19:13:06.838Z,98739.84
2019-03-03T19:15:35.998Z,98744.56
2019-03-03T19:18:05.407Z,98747.16
2019-03-03T19:20:34.211Z,98736.56
2019-03-03T19:23:03.018Z,98742.06
2019-03-03T19:25:31.818Z,98734.34
2019-03-03T19:28:00.639Z,98734.84
2019-03-03T19:30:31.006Z,98741.63
2019-03-03T19:33:12.067Z,98728.81
2019-03-03T19:35:41.459Z,98737.05
2019-03-03T19:38:10.660Z,98734.85
2019-03-03T19:40:39.579Z,98731.23
2019-03-03T19:43:08.879Z,98746.92
2019-03-03T19:45:46.962Z,98741.46
2019-03-03T19:48:16.058Z,98744.82
2019-03-03T19:50:45.738Z,98729.91
2019-03-03T19:53:15.018Z,98733.88
2019-03-03T19:55:44.950Z,98735.91
2019-03-03T19:58:13.858Z,98719.56
2019-03-03T20:00:43.951Z,98719.93
2019-03-03T20:03:13.639Z,98718.59
2019-03-03T20:05:42.702Z,98720.89
2019-03-03T20:08:13.130Z,98724.69
2019-03-03T20:10:42.458Z,98721.02
2019-03-03T20:13:11.678Z,98718.56
2019-03-03T20:15:40.478Z,98721.58
2019-03-03T20:18:10.657Z,98727.66
2019-03-03T20:20:40.059Z,98723.00
2019-03-03T20:23:09.338Z,98722.84
2019-03-03T20:25:47.498Z,98717.88
2019-03-03T20:28:16.397Z,98714.60
2019-03-03T20:30:45.838Z,98713.19
2019-03-03T20:33:14.879Z,98702.64
2019-03-03T20:35:43.618Z,98705.09
2019-03-03T20:38:12.439Z,98700.00
2019-03-03T20:40:41.188Z,98694.09
2019-03-03T20:43:10.018Z,98697.14
2019-03-03T20:45:38.983Z,98696.77
2019-03-03T20:48:07.844Z,98692.53
2019-03-03T20:50:36.731Z,98692.06
2019-03-03T20:53:05.465Z,98687.88
2019-03-03T20:55:34.358Z,98685.92
2019-03-03T20:58:03.099Z,98684.66
2019-03-03T21:00:33.178Z,98688.79
2019-03-03T21:03:03.397Z,98685.55
2019-03-03T21:05:32.269Z,98684.61
2019-03-03T21:08:01.019Z,98682.84
2019-03-03T21:10:31.192Z,98675.77
2019-03-03T21:12:59.991Z,98669.30
2019-03-03T21:15:29.219Z,98669.33
2019-03-03T21:17:58.039Z,98665.80
2019-03-03T21:20:26.818Z,98657.88
2019-03-03T21:22:55.762Z,98653.29
2019-03-03T21:25:24.519Z,98646.46
2019-03-03T21:27:53.301Z,98641.67
2019-03-03T21:30:27.219Z,98641.61
2019-03-03T21:32:55.419Z,98630.73
2019-03-03T21:35:24.263Z,98631.52
2019-03-03T21:37:53.163Z,98632.69
2019-03-03T21:40:26.781Z,98627.66
2019-03-03T21:42:55.608Z,98630.99
2019-03-03T21:45:31.859Z,98624.48
2019-03-03T21:48:00.699Z,98624.81
2019-03-03T21:50:30.818Z,98622.64
2019-03-03T21:52:59.700Z,98617.42
2019-03-03T21:55:28.746Z,98611.91
2019-03-03T21:57:57.518Z,98605.95
2019-03-03T22:00:34.707Z,98602.90
2019-03-03T22:03:03.486Z,98606.37
2019-03-03T22:05:32.258Z,98601.16
2019-03-03T22:08:01.039Z,98600.73
2019-03-03T22:10:30.183Z,98603.09
2019-03-03T22:13:04.480Z,98602.05
2019-03-03T22:15:33.661Z,98599.83
2019-03-03T22:18:02.739Z,98590.57
2019-03-03T22:20:31.460Z,98594.32
2019-03-03T22:23:01.623Z,98587.88
2019-03-03T22:25:30.679Z,98585.08
2019-03-03T22:27:59.458Z,98581.48
2019-03-03T22:30:28.218Z,98581.27
2019-03-03T22:32:56.981Z,98581.70
2019-03-03T22:35:25.758Z,98575.20
2019-03-03T22:37:54.550Z,98566.06
2019-03-03T22:40:24.860Z,98569.64
2019-03-03T22:42:53.638Z,98558.44
2019-03-03T22:45:23.717Z,98557.77
2019-03-03T22:47:52.433Z,98562.47
2019-03-03T22:50:22.340Z,98558.88
2019-03-03T22:52:51.480Z,98549.22
2019-03-03T22:55:21.577Z,98547.48
2019-03-03T22:57:50.370Z,98553.55
2019-03-03T23:00:44.700Z,98543.67
2019-03-03T23:03:16.339Z,98544.47
2019-03-03T23:06:09.059Z,98551.02
2019-03-03T23:09:04.998Z,98542.14
2019-03-03T23:11:42.298Z,98536.21
2019-03-03T23:14:38.458Z,98544.63
2019-03-03T23:17:22.265Z,98537.49
2019-03-03T23:20:08.819Z,98537.08
2019-03-03T23:22:55.561Z,98539.19
2019-03-03T23:25:48.240Z,98542.37
2019-03-03T23:28:17.318Z,98543.89
2019-03-03T23:30:48.606Z,98552.70
2019-03-03T23:33:20.219Z,98547.59
2019-03-03T23:35:48.979Z,98552.39
2019-03-03T23:38:17.703Z,98550.48
2019-03-03T23:40:46.760Z,98545.11
2019-03-03T23:43:15.518Z,98548.69
2019-03-03T23:45:44.599Z,98542.84
2019-03-03T23:48:13.360Z,98538.23
2019-03-03T23:50:42.137Z,98536.38
2019-03-03T23:53:10.858Z,98548.11
2019-03-03T23:55:39.638Z,98531.78
2019-03-03T23:58:08.418Z,98527.81
